Time;durP1;ratioP1;P1;durP2;ratioP2;P2;SDS_P1;SDS_P2;PMS_P1;PMS_P2;Temp;Humidity;BMP_temperature;BMP_pressure;BME280_temperature;BME280_humidity;BME280_pressure;Samples;Min_cycle;Max_cycle;Signal;HPM_P1;HPM_P2
2022/03/11 00:00:25;;;;;;;15.97;11.47;;;3.60;63.70;;;;;;6068826;23;20152;-91
2022/03/11 00:02:50;;;;;;;17.10;12.20;;;3.60;62.90;;;;;;6067240;23;20162;-89
2022/03/11 00:05:17;;;;;;;18.27;12.03;;;3.60;63.30;;;;;;6068537;23;20158;-92
2022/03/11 00:07:42;;;;;;;19.93;11.97;;;3.60;63.20;;;;;;6068695;23;20186;-91
2022/03/11 00:10:08;;;;;;;17.00;12.03;;;3.60;62.80;;;;;;6069109;23;20572;-91
2022/03/11 00:12:37;;;;;;;18.17;11.87;;;3.50;63.10;;;;;;6067097;23;20623;-88
2022/03/11 00:15:06;;;;;;;17.43;11.80;;;3.50;62.30;;;;;;6067012;23;20166;-88
2022/03/11 00:17:33;;;;;;;16.77;11.00;;;3.50;62.70;;;;;;6066955;23;20159;-90
2022/03/11 00:19:59;;;;;;;17.13;10.57;;;3.50;62.00;;;;;;6067206;23;20160;-91
2022/03/11 00:22:25;;;;;;;18.57;11.47;;;3.50;61.90;;;;;;6066994;23;20179;-89
2022/03/11 00:24:50;;;;;;;17.07;11.03;;;3.40;62.00;;;;;;6067034;23;20178;-89
2022/03/11 00:27:16;;;;;;;16.17;10.90;;;3.40;62.00;;;;;;6067092;23;20173;-90
2022/03/11 00:29:42;;;;;;;16.20;10.50;;;3.30;62.00;;;;;;6068453;23;20178;-91
2022/03/11 00:32:08;;;;;;;16.13;10.87;;;3.30;61.80;;;;;;6068953;23;20151;-90
2022/03/11 00:34:34;;;;;;;18.77;11.60;;;3.30;61.50;;;;;;6068360;23;20175;-91
2022/03/11 00:37:00;;;;;;;17.27;11.37;;;3.30;61.70;;;;;;6066964;23;20152;-90
2022/03/11 00:39:26;;;;;;;20.27;11.10;;;3.30;61.40;;;;;;6068251;23;20199;-90
2022/03/11 00:41:51;;;;;;;18.00;11.10;;;3.20;61.50;;;;;;6066880;23;20182;-89
2022/03/11 00:44:17;;;;;;;30.10;12.03;;;3.20;61.80;;;;;;6069595;23;20157;-89
2022/03/11 00:46:43;;;;;;;15.80;11.00;;;3.30;61.20;;;;;;6068885;23;20679;-91
2022/03/11 00:49:08;;;;;;;13.00;9.80;;;3.20;61.40;;;;;;6070183;23;20674;-91
2022/03/11 00:51:34;;;;;;;14.13;10.13;;;3.20;60.80;;;;;;6069830;23;20163;-92
2022/03/11 00:54:08;;;;;;;17.33;10.53;;;3.10;61.10;;;;;;6071115;23;20219;-91
2022/03/11 00:56:37;;;;;;;16.77;10.00;;;3.10;60.90;;;;;;6069921;23;20466;-92
2022/03/11 00:59:16;;;;;;;17.00;10.10;;;3.10;61.00;;;;;;6070903;23;20178;-91
2022/03/11 01:01:41;;;;;;;17.87;10.67;;;3.00;61.30;;;;;;6070227;23;20183;-91
2022/03/11 01:04:07;;;;;;;18.80;11.10;;;3.00;61.30;;;;;;6069934;23;20161;-90
2022/03/11 01:06:33;;;;;;;15.57;9.80;;;3.00;61.30;;;;;;6070373;23;20151;-90
2022/03/11 01:08:58;;;;;;;15.67;10.03;;;2.90;61.10;;;;;;6068571;23;20198;-91
2022/03/11 01:11:24;;;;;;;17.00;9.70;;;2.90;61.10;;;;;;6069771;23;20478;-90
2022/03/11 01:13:50;;;;;;;16.37;9.90;;;3.00;60.80;;;;;;6069380;23;20303;-90
2022/03/11 01:16:15;;;;;;;14.97;10.27;;;2.90;61.00;;;;;;6070130;23;20161;-90
2022/03/11 01:18:41;;;;;;;12.50;9.27;;;2.90;60.80;;;;;;6068560;23;20700;-90
2022/03/11 01:21:08;;;;;;;17.47;10.10;;;2.80;61.00;;;;;;6068587;23;20221;-90
2022/03/11 01:23:34;;;;;;;16.27;10.47;;;2.80;61.10;;;;;;6068403;23;20184;-90
2022/03/11 01:25:59;;;;;;;18.90;9.73;;;2.80;61.50;;;;;;6070220;23;20552;-90
2022/03/11 01:28:25;;;;;;;15.07;10.23;;;2.80;61.20;;;;;;6069763;23;20177;-90
2022/03/11 01:30:50;;;;;;;12.97;9.47;;;2.70;61.30;;;;;;6068191;23;20683;-90
2022/03/11 01:33:16;;;;;;;14.10;10.10;;;2.70;61.50;;;;;;6069757;23;20165;-88
2022/03/11 01:35:42;;;;;;;17.07;11.60;;;2.60;61.40;;;;;;6069944;23;20469;-89
2022/03/11 01:38:07;;;;;;;19.70;10.00;;;2.60;61.60;;;;;;6068337;23;20180;-89
2022/03/11 01:40:33;;;;;;;12.77;9.20;;;2.60;61.10;;;;;;6069768;23;20662;-91
2022/03/11 01:42:59;;;;;;;12.90;8.57;;;2.60;61.40;;;;;;6068798;23;20221;-91
2022/03/11 01:45:24;;;;;;;15.53;9.23;;;2.50;61.30;;;;;;6069213;23;20197;-90
2022/03/11 01:47:50;;;;;;;17.97;9.50;;;2.60;61.20;;;;;;6070067;23;20176;-89
2022/03/11 01:50:15;;;;;;;15.63;9.53;;;2.50;61.10;;;;;;6068848;23;20184;-90
2022/03/11 01:52:41;;;;;;;15.13;9.57;;;2.40;61.60;;;;;;6069798;23;20536;-90
2022/03/11 01:55:07;;;;;;;15.60;9.17;;;2.40;61.20;;;;;;6069297;23;20152;-89
2022/03/11 01:57:36;;;;;;;13.30;9.27;;;2.40;61.60;;;;;;6070443;23;20221;-89
2022/03/11 02:00:07;;;;;;;13.17;9.07;;;2.30;61.70;;;;;;6071100;23;20151;-88
2022/03/11 02:02:32;;;;;;;15.57;8.40;;;2.30;61.70;;;;;;6068887;23;20649;-89
2022/03/11 02:04:59;;;;;;;11.67;8.43;;;2.30;61.30;;;;;;6070373;23;20148;-88
2022/03/11 02:07:24;;;;;;;13.63;8.77;;;2.30;61.40;;;;;;6070071;23;20151;-88
2022/03/11 02:09:50;;;;;;;11.00;8.00;;;2.30;61.50;;;;;;6070676;23;20213;-88
2022/03/11 02:12:30;;;;;;;12.00;8.00;;;2.30;61.20;;;;;;6069914;23;20214;-88
2022/03/11 02:14:55;;;;;;;14.87;9.40;;;2.20;61.50;;;;;;6068437;23;20165;-89
2022/03/11 02:17:21;;;;;;;15.70;8.97;;;2.30;61.40;;;;;;6070159;23;20185;-89
2022/03/11 02:19:47;;;;;;;14.07;9.17;;;2.10;61.60;;;;;;6068685;23;20188;-88
2022/03/11 02:22:15;;;;;;;12.00;7.80;;;2.10;62.00;;;;;;6068999;23;20189;-89
2022/03/11 02:24:41;;;;;;;18.03;9.00;;;2.10;61.80;;;;;;6070032;23;20144;-88
2022/03/11 02:27:06;;;;;;;13.17;8.20;;;2.00;62.10;;;;;;6069656;23;20160;-89
2022/03/11 02:29:32;;;;;;;13.77;9.23;;;2.00;61.90;;;;;;6070189;23;20168;-88
2022/03/11 02:31:58;;;;;;;14.20;8.60;;;2.00;62.10;;;;;;6070150;23;20230;-88
2022/03/11 02:34:23;;;;;;;14.53;9.53;;;2.00;61.90;;;;;;6070053;23;20159;-89
2022/03/11 02:36:49;;;;;;;12.73;8.10;;;2.00;62.00;;;;;;6069848;23;20607;-88
2022/03/11 02:39:14;;;;;;;14.63;9.03;;;1.90;62.00;;;;;;6069915;23;20181;-88
2022/03/11 02:41:43;;;;;;;10.90;8.00;;;1.90;62.40;;;;;;6068408;23;20235;-88
2022/03/11 02:44:08;;;;;;;15.50;8.13;;;1.80;62.40;;;;;;6068368;23;20503;-88
2022/03/11 02:46:34;;;;;;;12.80;7.50;;;1.80;62.30;;;;;;6068214;23;20167;-89
2022/03/11 02:49:00;;;;;;;11.70;7.77;;;1.90;61.90;;;;;;6069524;23;20511;-88
2022/03/11 02:51:25;;;;;;;13.70;8.27;;;1.80;62.00;;;;;;6068223;23;20165;-89
2022/03/11 02:53:51;;;;;;;12.30;8.50;;;1.80;62.30;;;;;;6068124;23;20163;-88
2022/03/11 02:56:18;;;;;;;13.80;8.37;;;1.80;62.00;;;;;;6069555;23;20522;-89
2022/03/11 02:58:43;;;;;;;16.30;9.27;;;1.80;62.00;;;;;;6069461;23;20251;-88
2022/03/11 03:01:09;;;;;;;10.93;7.90;;;1.80;61.80;;;;;;6068520;23;20210;-90
2022/03/11 03:03:36;;;;;;;14.50;7.80;;;1.70;61.50;;;;;;6067905;23;20168;-89
2022/03/11 03:06:02;;;;;;;12.67;7.83;;;1.70;61.90;;;;;;6070809;23;20476;-89
2022/03/11 03:08:28;;;;;;;10.03;7.20;;;1.70;61.70;;;;;;6069632;23;20192;-88
2022/03/11 03:10:53;;;;;;;12.63;7.50;;;1.70;62.30;;;;;;6068294;23;20239;-88
2022/03/11 03:13:19;;;;;;;10.17;6.83;;;1.60;62.10;;;;;;6069671;23;20161;-88
2022/03/11 03:15:44;;;;;;;10.10;7.53;;;1.60;62.30;;;;;;6068368;23;20163;-88
2022/03/11 03:18:10;;;;;;;12.30;8.10;;;1.60;62.10;;;;;;6067700;23;20218;-88
2022/03/11 03:20:35;;;;;;;13.37;7.07;;;1.60;61.80;;;;;;6068107;23;20194;-88
2022/03/11 03:23:01;;;;;;;12.53;8.53;;;1.50;62.00;;;;;;6069320;23;20486;-88
2022/03/11 03:25:27;;;;;;;11.13;5.33;;;1.60;61.80;;;;;;6069967;23;20313;-89
2022/03/11 03:27:52;;;;;;;12.73;7.07;;;1.50;61.90;;;;;;6069439;23;20175;-88
2022/03/11 03:30:19;;;;;;;12.30;6.50;;;1.60;61.30;;;;;;6068296;23;20153;-89
2022/03/11 03:32:44;;;;;;;10.63;5.83;;;1.60;61.20;;;;;;6069606;23;20155;-89
2022/03/11 03:35:11;;;;;;;11.67;6.97;;;1.50;61.70;;;;;;6068211;23;20156;-89
2022/03/11 03:37:37;;;;;;;13.00;5.90;;;1.50;61.00;;;;;;6069781;23;20463;-88
2022/03/11 03:40:04;;;;;;;10.23;6.67;;;1.60;60.70;;;;;;6069936;23;20226;-88
2022/03/11 03:42:30;;;;;;;10.57;6.97;;;1.50;61.30;;;;;;6069428;23;20181;-89
2022/03/11 03:44:55;;;;;;;12.43;7.67;;;1.40;61.20;;;;;;6069408;23;20221;-89
2022/03/11 03:47:21;;;;;;;12.30;7.90;;;1.40;61.70;;;;;;6068256;23;20180;-89
2022/03/11 03:49:46;;;;;;;11.47;7.43;;;1.30;61.90;;;;;;6069282;23;20177;-88
2022/03/11 03:52:12;;;;;;;16.93;8.73;;;1.30;61.40;;;;;;6068153;23;20187;-88
2022/03/11 03:54:41;;;;;;;14.43;7.90;;;1.30;61.30;;;;;;6068090;23;20508;-88
2022/03/11 03:57:07;;;;;;;14.83;8.37;;;1.30;61.40;;;;;;6068156;23;20556;-88
2022/03/11 03:59:33;;;;;;;11.53;7.53;;;1.30;61.10;;;;;;6069191;23;20517;-88
2022/03/11 04:01:59;;;;;;;13.33;7.90;;;1.30;61.50;;;;;;6069100;23;20254;-89
2022/03/11 04:04:24;;;;;;;12.23;7.83;;;1.20;61.60;;;;;;6070224;23;20229;-88
2022/03/11 04:06:50;;;;;;;15.43;8.73;;;1.30;61.10;;;;;;6068812;23;20157;-88
2022/03/11 04:09:16;;;;;;;12.63;7.20;;;1.30;60.80;;;;;;6069487;23;20701;-88
2022/03/11 04:11:41;;;;;;;12.67;7.67;;;1.30;61.10;;;;;;6068103;23;20163;-88
2022/03/11 04:14:07;;;;;;;14.33;6.77;;;1.30;60.70;;;;;;6069645;23;20222;-89
2022/03/11 04:16:33;;;;;;;11.13;6.63;;;1.20;61.10;;;;;;6069383;23;20152;-88
2022/03/11 04:18:59;;;;;;;14.13;7.27;;;1.20;61.40;;;;;;6070633;23;20177;-89
2022/03/11 04:21:25;;;;;;;13.60;8.07;;;1.20;61.20;;;;;;6071357;23;20560;-89
2022/03/11 04:23:51;;;;;;;13.33;7.40;;;1.20;61.20;;;;;;6070034;23;20668;-88
2022/03/11 04:26:17;;;;;;;14.47;7.27;;;1.20;61.20;;;;;;6071378;23;20171;-88
2022/03/11 04:28:43;;;;;;;15.70;6.90;;;1.10;61.40;;;;;;6070873;23;20179;-89
2022/03/11 04:31:10;;;;;;;12.10;7.03;;;1.10;61.40;;;;;;6071874;23;20159;-88
2022/03/11 04:33:36;;;;;;;11.83;6.80;;;1.10;61.30;;;;;;6071082;23;20163;-89
2022/03/11 04:36:03;;;;;;;12.77;7.67;;;1.00;61.60;;;;;;6071148;23;20681;-88
2022/03/11 04:38:28;;;;;;;15.60;7.73;;;1.10;61.60;;;;;;6071183;23;20235;-89
2022/03/11 04:40:54;;;;;;;9.37;5.73;;;1.00;61.70;;;;;;6071667;23;20277;-88
2022/03/11 04:43:20;;;;;;;17.83;7.47;;;1.00;61.70;;;;;;6071198;23;20149;-89
2022/03/11 04:45:46;;;;;;;14.47;8.20;;;0.90;62.40;;;;;;6071065;23;20200;-88
2022/03/11 04:48:12;;;;;;;11.97;7.63;;;0.80;62.30;;;;;;6070599;23;20167;-89
2022/03/11 04:50:38;;;;;;;17.13;8.10;;;0.80;62.90;;;;;;6071029;23;20152;-89
2022/03/11 04:53:04;;;;;;;14.17;8.73;;;0.70;63.10;;;;;;6070130;23;20235;-90
2022/03/11 04:55:29;;;;;;;12.53;6.80;;;0.70;63.20;;;;;;6070809;23;20147;-89
2022/03/11 04:57:55;;;;;;;11.50;6.73;;;0.70;63.30;;;;;;6070849;23;20179;-89
2022/03/11 05:00:21;;;;;;;18.60;9.10;;;0.70;62.90;;;;;;6070867;23;20627;-89
2022/03/11 05:02:47;;;;;;;16.57;7.77;;;0.70;62.90;;;;;;6069096;23;20230;-89
2022/03/11 05:05:14;;;;;;;13.93;8.90;;;0.70;63.10;;;;;;6071176;23;20156;-89
2022/03/11 05:07:40;;;;;;;12.27;5.57;;;0.70;63.00;;;;;;6069588;23;20156;-89
2022/03/11 05:10:10;;;;;;;17.30;9.53;;;0.60;62.90;;;;;;6069517;23;20168;-89
2022/03/11 05:12:37;;;;;;;16.10;7.73;;;0.70;63.00;;;;;;6070725;23;20152;-90
2022/03/11 05:15:05;;;;;;;16.17;7.93;;;0.60;63.20;;;;;;6070946;23;20168;-89
2022/03/11 05:17:31;;;;;;;17.53;8.77;;;0.50;63.50;;;;;;6071126;23;20155;-89
2022/03/11 05:19:57;;;;;;;12.13;7.50;;;0.50;63.40;;;;;;6070831;23;20600;-89
2022/03/11 05:22:23;;;;;;;14.10;7.97;;;0.60;62.60;;;;;;6070573;23;20231;-90
2022/03/11 05:24:48;;;;;;;13.73;8.40;;;0.50;63.30;;;;;;6041218;23;20200;-88
2022/03/11 05:27:14;;;;;;;14.47;8.57;;;0.50;63.70;;;;;;6040976;23;20145;-89
2022/03/11 05:29:40;;;;;;;14.47;8.67;;;0.40;63.80;;;;;;6039136;23;20311;-89
2022/03/11 05:32:07;;;;;;;17.80;8.13;;;0.50;63.50;;;;;;6039165;23;20728;-89
2022/03/11 05:34:34;;;;;;;12.63;8.10;;;0.40;63.90;;;;;;6039570;23;20208;-89
2022/03/11 05:37:00;;;;;;;16.47;9.70;;;0.40;64.30;;;;;;6039037;23;20176;-89
2022/03/11 05:39:25;;;;;;;16.97;10.20;;;0.30;64.10;;;;;;6039051;23;20164;-88
2022/03/11 05:41:51;;;;;;;14.87;9.03;;;0.30;64.20;;;;;;6038911;23;20195;-88
2022/03/11 05:44:17;;;;;;;14.90;9.67;;;0.30;63.90;;;;;;6038993;23;20515;-89
2022/03/11 05:46:44;;;;;;;16.70;8.83;;;0.30;63.20;;;;;;6040182;23;20183;-89
2022/03/11 05:49:09;;;;;;;14.73;8.57;;;0.30;63.40;;;;;;6040001;23;20156;-89
2022/03/11 05:51:35;;;;;;;16.77;9.87;;;0.30;63.20;;;;;;6040441;23;20152;-88
2022/03/11 05:54:01;;;;;;;15.20;9.23;;;0.30;63.40;;;;;;6038894;23;20180;-88
2022/03/11 05:56:26;;;;;;;17.63;10.63;;;0.30;63.40;;;;;;6039066;23;20171;-88
2022/03/11 05:58:52;;;;;;;16.67;9.10;;;0.30;63.40;;;;;;6038825;23;20196;-88
2022/03/11 06:01:18;;;;;;;11.53;7.10;;;0.30;62.90;;;;;;6039517;23;20563;-89
2022/03/11 06:03:46;;;;;;;15.73;9.40;;;0.30;63.00;;;;;;6038813;23;20175;-89
2022/03/11 06:06:12;;;;;;;9.50;6.00;;;0.40;62.80;;;;;;6038818;23;20159;-89
2022/03/11 06:08:38;;;;;;;15.10;8.63;;;0.50;62.00;;;;;;6038820;23;20509;-89
2022/03/11 06:11:04;;;;;;;16.80;10.10;;;0.40;62.60;;;;;;6038713;23;20211;-89
2022/03/11 06:13:29;;;;;;;17.03;9.87;;;0.50;62.40;;;;;;6038723;23;20189;-88
2022/03/11 06:15:55;;;;;;;13.10;7.93;;;0.50;62.50;;;;;;6038777;23;20160;-89
2022/03/11 06:18:20;;;;;;;17.50;9.17;;;0.50;62.90;;;;;;6038813;23;20235;-88
2022/03/11 06:20:46;;;;;;;18.93;10.33;;;0.50;62.50;;;;;;6038642;23;20167;-89
2022/03/11 06:23:13;;;;;;;15.63;9.03;;;0.50;62.20;;;;;;6046999;23;20226;-89
2022/03/11 06:25:38;;;;;;;20.33;9.70;;;0.50;62.00;;;;;;6043355;23;20167;-89
2022/03/11 06:28:04;;;;;;;14.60;8.97;;;0.60;62.00;;;;;;6043386;23;20511;-89
2022/03/11 06:30:30;;;;;;;21.70;9.43;;;0.60;62.30;;;;;;6043313;23;20503;-88
2022/03/11 06:32:56;;;;;;;15.57;9.50;;;0.60;62.10;;;;;;6043296;23;20188;-88
2022/03/11 06:35:21;;;;;;;18.30;7.47;;;0.60;61.30;;;;;;6043705;23;20291;-88
2022/03/11 06:37:50;;;;;;;15.93;9.27;;;0.60;61.50;;;;;;6043670;23;20159;-89
2022/03/11 06:40:17;;;;;;;22.23;7.90;;;0.70;61.20;;;;;;6068700;23;20534;-89
2022/03/11 06:42:44;;;;;;;15.83;9.67;;;0.60;61.10;;;;;;6042850;23;20507;-89
2022/03/11 06:45:11;;;;;;;12.90;8.57;;;0.70;60.80;;;;;;6043182;23;20166;-88
2022/03/11 06:47:37;;;;;;;16.90;9.10;;;0.70;60.60;;;;;;6043248;23;20163;-89
2022/03/11 06:50:04;;;;;;;15.93;8.80;;;0.70;60.90;;;;;;6068909;23;20152;-89
2022/03/11 06:52:30;;;;;;;14.33;8.10;;;0.70;60.30;;;;;;6068427;23;20243;-89
2022/03/11 06:54:55;;;;;;;18.03;10.53;;;0.80;60.50;;;;;;6043044;23;20163;-88
2022/03/11 06:57:21;;;;;;;12.57;8.17;;;0.80;60.80;;;;;;6043028;23;20163;-89
2022/03/11 06:59:48;;;;;;;13.60;8.33;;;0.80;60.20;;;;;;6043196;23;20160;-89
2022/03/11 07:02:14;;;;;;;18.07;8.93;;;0.80;60.00;;;;;;6068557;23;20620;-88
2022/03/11 07:04:40;;;;;;;12.17;7.47;;;0.90;60.10;;;;;;6042920;23;20194;-89
2022/03/11 07:07:05;;;;;;;11.90;6.27;;;0.90;59.70;;;;;;6043028;23;20217;-89
2022/03/11 07:09:31;;;;;;;14.20;8.03;;;0.90;59.70;;;;;;6043075;23;20713;-89
2022/03/11 07:11:57;;;;;;;18.17;9.30;;;0.90;59.40;;;;;;6068259;23;20222;-89
2022/03/11 07:14:23;;;;;;;15.43;8.40;;;0.90;59.60;;;;;;6069140;23;20242;-90
2022/03/11 07:16:52;;;;;;;15.47;7.67;;;1.00;59.80;;;;;;6042959;23;20753;-89
2022/03/11 07:19:20;;;;;;;15.07;7.87;;;1.00;58.90;;;;;;6042869;23;20160;-89
2022/03/11 07:21:46;;;;;;;15.50;8.97;;;1.00;59.10;;;;;;6042824;23;20163;-89
2022/03/11 07:24:12;;;;;;;19.20;8.43;;;1.00;59.60;;;;;;6058590;23;20250;-89
2022/03/11 07:26:37;;;;;;;15.60;9.10;;;1.10;58.90;;;;;;6066752;23;20167;-89
2022/03/11 07:29:03;;;;;;;14.97;8.53;;;1.10;58.80;;;;;;6066757;23;20157;-89
2022/03/11 07:31:29;;;;;;;17.10;10.87;;;1.20;58.00;;;;;;6065991;23;20401;-88
2022/03/11 07:33:57;;;;;;;13.43;8.50;;;1.20;58.50;;;;;;6066766;23;20183;-88
2022/03/11 07:36:24;;;;;;;11.87;6.77;;;1.20;58.00;;;;;;6066752;23;20233;-88
2022/03/11 07:38:50;;;;;;;12.43;7.67;;;1.20;57.90;;;;;;6067057;23;20676;-88
2022/03/11 07:41:16;;;;;;;14.63;9.23;;;1.30;58.00;;;;;;6066763;23;20187;-88
2022/03/11 07:43:44;;;;;;;15.57;7.83;;;1.30;57.20;;;;;;6066699;23;20182;-89
2022/03/11 07:46:14;;;;;;;15.00;8.90;;;1.30;57.30;;;;;;6066867;23;20164;-89
2022/03/11 07:48:40;;;;;;;13.37;8.80;;;1.40;57.30;;;;;;6068243;23;20155;-89
2022/03/11 07:51:06;;;;;;;13.20;8.43;;;1.40;56.70;;;;;;6066702;23;20192;-89
2022/03/11 07:53:32;;;;;;;16.17;9.20;;;1.40;56.80;;;;;;6069096;23;20174;-89
2022/03/11 07:55:58;;;;;;;11.47;7.97;;;1.50;56.20;;;;;;6068626;23;20160;-89
2022/03/11 07:58:24;;;;;;;13.27;8.07;;;1.60;56.60;;;;;;6068691;23;20493;-89
2022/03/11 08:00:52;;;;;;;14.97;8.73;;;1.60;56.20;;;;;;6068686;23;20248;-88
2022/03/11 08:03:19;;;;;;;20.73;9.03;;;1.70;56.20;;;;;;6068550;23;20189;-88
2022/03/11 08:05:45;;;;;;;19.40;7.87;;;1.70;55.40;;;;;;6070099;23;20163;-88
2022/03/11 08:08:10;;;;;;;12.97;7.47;;;1.80;55.30;;;;;;6068598;23;20159;-88
2022/03/11 08:10:37;;;;;;;18.60;8.50;;;1.80;54.40;;;;;;6069965;23;20158;-88
2022/03/11 08:13:06;;;;;;;17.77;9.60;;;1.90;54.70;;;;;;6068505;23;20205;-89
2022/03/11 08:15:32;;;;;;;14.23;9.07;;;2.00;53.60;;;;;;6068512;23;20243;-88
2022/03/11 08:17:58;;;;;;;10.87;6.90;;;2.10;54.90;;;;;;6068502;23;20157;-89
2022/03/11 08:20:24;;;;;;;16.33;8.43;;;2.10;53.40;;;;;;6069985;23;20158;-88
2022/03/11 08:22:50;;;;;;;13.60;8.47;;;2.10;53.40;;;;;;6069864;23;20275;-88
2022/03/11 08:25:17;;;;;;;12.80;6.17;;;2.10;52.60;;;;;;6068538;23;20149;-88
2022/03/11 08:27:44;;;;;;;12.70;7.90;;;2.20;52.50;;;;;;6069962;23;20229;-88
2022/03/11 08:30:11;;;;;;;11.00;6.50;;;2.30;53.50;;;;;;6068392;23;20167;-88
2022/03/11 08:32:38;;;;;;;19.40;9.37;;;2.30;52.80;;;;;;6068985;23;20260;-88
2022/03/11 08:35:04;;;;;;;13.83;8.53;;;2.40;52.40;;;;;;6068379;23;20607;-88
2022/03/11 08:37:30;;;;;;;9.60;5.00;;;2.50;53.30;;;;;;6068630;23;20186;-89
2022/03/11 08:39:55;;;;;;;14.97;8.03;;;2.60;52.30;;;;;;6069110;23;20228;-91
2022/03/11 08:42:21;;;;;;;22.60;7.90;;;2.70;53.00;;;;;;6068353;23;20167;-89
2022/03/11 08:44:47;;;;;;;16.13;9.57;;;2.80;51.70;;;;;;6068382;23;20182;-89
2022/03/11 08:47:13;;;;;;;17.77;8.80;;;2.80;51.60;;;;;;6068172;23;20158;-89
2022/03/11 08:49:38;;;;;;;20.63;9.27;;;2.80;51.40;;;;;;6068932;23;20200;-89
2022/03/11 08:52:05;;;;;;;16.93;9.20;;;2.90;51.40;;;;;;6068120;23;20273;-89
2022/03/11 08:54:31;;;;;;;16.70;8.70;;;3.00;50.50;;;;;;6068164;23;20173;-89
2022/03/11 08:56:59;;;;;;;16.87;8.00;;;3.10;51.70;;;;;;6068283;23;20187;-89
2022/03/11 08:59:25;;;;;;;14.03;8.57;;;3.30;50.20;;;;;;6068167;23;20608;-89
2022/03/11 09:01:51;;;;;;;17.20;8.20;;;3.30;49.50;;;;;;6069538;23;20182;-89
2022/03/11 09:04:16;;;;;;;8.67;6.70;;;3.40;49.50;;;;;;6067811;23;20183;-89
2022/03/11 09:06:42;;;;;;;15.07;8.07;;;3.40;48.00;;;;;;6068122;23;20234;-89
2022/03/11 09:09:08;;;;;;;17.07;8.20;;;3.40;48.40;;;;;;6069980;23;20155;-89
2022/03/11 09:11:35;;;;;;;18.10;8.00;;;3.50;48.50;;;;;;6068123;23;20190;-88
2022/03/11 09:14:00;;;;;;;13.27;7.80;;;3.60;47.30;;;;;;6068016;23;20172;-89
2022/03/11 09:16:26;;;;;;;20.30;8.73;;;3.70;46.80;;;;;;6068047;23;20254;-89
2022/03/11 09:18:53;;;;;;;16.20;7.90;;;3.80;46.80;;;;;;6068830;23;20554;-89
2022/03/11 09:21:20;;;;;;;11.57;7.17;;;3.90;46.70;;;;;;6069833;23;20485;-89
2022/03/11 09:23:47;;;;;;;9.40;4.53;;;3.90;46.40;;;;;;6069427;23;20249;-89
2022/03/11 09:26:13;;;;;;;17.60;8.70;;;3.90;46.40;;;;;;6068161;23;20169;-89
2022/03/11 09:28:39;;;;;;;14.43;7.63;;;4.10;47.30;;;;;;6067805;23;20182;-89
2022/03/11 09:31:08;;;;;;;8.80;4.67;;;4.30;46.30;;;;;;6069998;23;20243;-89
2022/03/11 09:33:37;;;;;;;9.67;6.07;;;4.30;44.70;;;;;;6067862;23;20710;-89
2022/03/11 09:36:04;;;;;;;13.03;7.00;;;4.30;45.60;;;;;;6069375;23;20183;-89
2022/03/11 09:38:30;;;;;;;13.03;7.63;;;4.50;45.00;;;;;;6067702;23;20624;-89
2022/03/11 09:40:57;;;;;;;14.07;7.70;;;4.70;46.10;;;;;;6067905;23;20163;-89
2022/03/11 09:43:22;;;;;;;16.20;7.30;;;4.80;44.10;;;;;;6067966;23;20632;-89
2022/03/11 09:45:48;;;;;;;17.30;7.80;;;4.90;43.30;;;;;;6067992;23;20162;-90
2022/03/11 09:48:17;;;;;;;5.37;3.27;;;5.00;44.00;;;;;;6067986;23;20688;-90
2022/03/11 09:50:43;;;;;;;13.33;7.27;;;4.90;42.20;;;;;;6068086;23;20187;-90
2022/03/11 09:53:12;;;;;;;11.17;6.20;;;4.90;43.50;;;;;;6067861;23;20519;-90
2022/03/11 09:55:42;;;;;;;18.50;7.43;;;5.20;43.20;;;;;;6067858;23;20234;-90
2022/03/11 09:58:08;;;;;;;17.83;7.47;;;5.10;42.20;;;;;;6067845;23;20635;-89
2022/03/11 10:00:34;;;;;;;17.27;7.97;;;5.10;41.20;;;;;;6068435;23;20156;-90
2022/03/11 10:02:59;;;;;;;14.27;7.50;;;5.30;43.10;;;;;;6069023;23;20491;-90
2022/03/11 10:05:53;;;;;;;13.53;7.27;;;5.50;42.80;;;;;;6074452;23;20160;-92
2022/03/11 10:08:39;;;;;;;11.57;6.73;;;5.70;41.70;;;;;;6068481;23;20534;-90
2022/03/11 10:11:23;;;;;;;19.60;7.30;;;5.60;41.30;;;;;;6067757;23;20180;-89
2022/03/11 10:13:49;;;;;;;16.20;8.00;;;5.90;41.90;;;;;;6067535;23;20176;-90
2022/03/11 10:16:23;;;;;;;11.27;7.43;;;6.10;40.10;;;;;;6067293;23;20161;-90
2022/03/11 10:18:59;;;;;;;13.67;7.33;;;6.20;39.70;;;;;;6067631;23;20192;-90
2022/03/11 10:21:34;;;;;;;21.93;7.67;;;6.20;38.70;;;;;;6069490;23;20225;-90
2022/03/11 10:24:03;;;;;;;19.20;6.80;;;6.20;38.90;;;;;;6067689;23;20674;-90
2022/03/11 10:26:34;;;;;;;14.43;7.43;;;6.30;38.30;;;;;;6067550;23;20249;-90
2022/03/11 10:29:02;;;;;;;12.53;7.77;;;6.50;39.40;;;;;;6067668;23;20480;-90
2022/03/11 10:31:32;;;;;;;13.23;6.60;;;6.50;37.80;;;;;;6067259;23;20695;-90
2022/03/11 10:34:24;;;;;;;15.90;7.93;;;6.40;38.10;;;;;;6067248;23;20518;-90
2022/03/11 10:36:51;;;;;;;13.03;7.13;;;6.60;37.70;;;;;;6068794;23;20206;-90
2022/03/11 10:39:31;;;;;;;15.57;6.90;;;6.70;38.30;;;;;;6067950;23;20162;-90
2022/03/11 10:42:15;;;;;;;14.57;7.30;;;6.70;37.90;;;;;;6072845;23;20177;-92
2022/03/11 10:45:06;;;;;;;13.53;7.87;;;6.80;36.00;;;;;;6078762;23;20202;-92
2022/03/11 10:47:40;;;;;;;20.60;7.50;;;7.00;37.10;;;;;;6076418;23;20209;-93
2022/03/11 10:50:07;;;;;;;14.53;7.30;;;7.10;35.50;;;;;;6071687;23;20171;-90
2022/03/11 10:52:34;;;;;;;17.90;7.17;;;7.20;36.00;;;;;;6068748;23;20182;-90
2022/03/11 10:55:02;;;;;;;12.67;6.67;;;7.00;35.60;;;;;;6067513;23;20193;-90
2022/03/11 10:57:38;;;;;;;19.80;7.73;;;7.20;34.70;;;;;;6073382;23;20151;-89
2022/03/11 11:00:19;;;;;;;13.30;6.97;;;7.20;34.60;;;;;;6070396;23;20215;-92
2022/03/11 11:02:49;;;;;;;18.67;7.00;;;7.30;35.10;;;;;;6070909;23;20155;-91
2022/03/11 11:05:15;;;;;;;14.23;7.23;;;7.40;34.50;;;;;;6067592;23;20160;-90
2022/03/11 11:07:41;;;;;;;13.87;6.97;;;7.70;33.40;;;;;;6068635;23;20163;-91
2022/03/11 11:10:14;;;;;;;12.73;6.40;;;7.70;33.50;;;;;;6072903;23;20148;-92
2022/03/11 11:12:41;;;;;;;12.17;6.67;;;7.60;34.10;;;;;;6076664;23;20230;-90
2022/03/11 11:15:09;;;;;;;11.93;6.40;;;7.70;34.20;;;;;;6067740;23;20505;-90
2022/03/11 11:17:41;;;;;;;10.93;6.20;;;7.80;34.80;;;;;;6067570;23;20735;-89
2022/03/11 11:20:16;;;;;;;15.07;6.57;;;7.80;34.20;;;;;;6070132;23;20637;-92
2022/03/11 11:22:44;;;;;;;14.57;6.47;;;7.80;34.10;;;;;;6067626;23;20480;-90
2022/03/11 11:25:10;;;;;;;18.03;7.70;;;7.90;33.10;;;;;;6067167;23;20168;-92
2022/03/11 11:27:38;;;;;;;14.63;6.37;;;8.10;32.20;;;;;;6066885;23;20472;-91
2022/03/11 11:30:05;;;;;;;13.20;7.07;;;8.00;32.80;;;;;;6067058;23;20163;-91
2022/03/11 11:32:31;;;;;;;13.27;6.43;;;8.00;33.50;;;;;;6066862;23;20525;-91
2022/03/11 11:35:30;;;;;;;13.20;7.33;;;8.30;33.40;;;;;;6067139;23;20615;-91
2022/03/11 11:37:58;;;;;;;10.97;5.83;;;8.40;34.80;;;;;;6066983;23;20179;-92
2022/03/11 11:40:35;;;;;;;17.53;6.87;;;8.50;30.60;;;;;;6066824;23;20160;-92
2022/03/11 11:46:14;;;;;;;9.73;6.50;;;8.50;31.50;;;;;;6055776;23;20170;-91
2022/03/11 11:48:45;;;;;;;10.63;6.23;;;8.60;31.30;;;;;;6066857;23;20186;-91
2022/03/11 11:51:13;;;;;;;14.27;7.43;;;8.50;30.80;;;;;;6066985;23;20202;-92
2022/03/11 11:53:42;;;;;;;18.63;6.73;;;8.50;30.40;;;;;;6067113;23;20306;-92
2022/03/11 11:56:34;;;;;;;9.53;6.23;;;8.50;31.10;;;;;;6077010;23;20179;-93
2022/03/11 11:59:18;;;;;;;11.70;6.43;;;8.60;31.20;;;;;;6074214;23;20164;-92
2022/03/11 12:01:55;;;;;;;10.47;6.30;;;8.50;30.10;;;;;;6068532;23;20584;-92
2022/03/11 12:04:33;;;;;;;12.50;6.73;;;8.60;31.00;;;;;;6067567;23;20179;-94
2022/03/11 12:07:05;;;;;;;13.93;6.53;;;8.80;30.70;;;;;;6066706;23;20163;-88
2022/03/11 12:12:30;;;;;;;10.73;6.20;;;8.90;30.60;;;;;;6068615;23;20187;-92
2022/03/11 12:15:04;;;;;;;15.10;6.60;;;9.00;31.20;;;;;;6076520;23;20158;-92
2022/03/11 12:17:55;;;;;;;12.40;6.70;;;8.90;29.90;;;;;;6067374;23;20155;-92
2022/03/11 12:20:35;;;;;;;12.70;5.87;;;8.90;30.50;;;;;;6066926;23;20152;-92
2022/03/11 12:23:14;;;;;;;11.67;5.70;;;8.90;30.70;;;;;;6066641;23;20191;-92
2022/03/11 12:25:46;;;;;;;10.03;6.80;;;8.90;29.30;;;;;;6066863;23;20683;-92
2022/03/11 12:28:28;;;;;;;15.27;6.33;;;8.90;29.00;;;;;;6067903;23;20246;-92
2022/03/11 12:31:03;;;;;;;8.37;5.37;;;8.80;29.00;;;;;;6066751;23;20155;-92
2022/03/11 12:33:39;;;;;;;10.43;6.13;;;8.90;30.30;;;;;;6066817;23;20186;-92
2022/03/11 12:36:10;;;;;;;12.37;5.67;;;9.10;30.10;;;;;;6066791;23;20234;-93
2022/03/11 12:38:37;;;;;;;11.33;6.13;;;9.10;28.90;;;;;;6067622;23;20591;-92
2022/03/11 12:41:14;;;;;;;15.33;7.37;;;9.10;29.10;;;;;;6068499;23;20156;-92
2022/03/11 12:43:41;;;;;;;16.23;6.23;;;9.20;29.60;;;;;;6068523;23;20616;-92
2022/03/11 12:46:09;;;;;;;8.00;5.67;;;9.20;29.10;;;;;;6069063;23;20238;-92
2022/03/11 12:48:37;;;;;;;14.27;7.20;;;9.40;29.00;;;;;;6068583;23;20215;-92
2022/03/11 12:51:08;;;;;;;10.43;6.00;;;9.40;29.90;;;;;;6068674;23;20156;-92
2022/03/11 12:53:39;;;;;;;16.73;6.10;;;9.60;29.50;;;;;;6068372;23;20195;-91